Time;durP1;ratioP1;P1;durP2;ratioP2;P2;SDS_P1;SDS_P2;PMS_P1;PMS_P2;Temp;Humidity;BMP_temperature;BMP_pressure;BME280_temperature;BME280_humidity;BME280_pressure;Samples;Min_cycle;Max_cycle;Signal;HPM_P1;HPM_P2
2022/03/06 00:00:15;;;;;;;15.83;12.90;;;;;;;;;;5075336;28;20197;-82
2022/03/06 00:02:43;;;;;;;15.93;14.27;;;;;;;;;;5071189;28;20197;-82
2022/03/06 00:05:12;;;;;;;13.57;11.50;;;;;;;;;;5071394;28;20193;-81
2022/03/06 00:07:39;;;;;;;14.70;12.73;;;;;;;;;;5071361;28;20240;-82
2022/03/06 00:10:07;;;;;;;14.87;13.20;;;;;;;;;;5071369;28;20204;-82
2022/03/06 00:12:34;;;;;;;16.30;13.80;;;;;;;;;;5071379;28;20193;-82
2022/03/06 00:15:01;;;;;;;16.47;14.23;;;;;;;;;;5072061;28;20570;-82
2022/03/06 00:17:28;;;;;;;15.37;12.67;;;;;;;;;;5071311;28;20670;-82
2022/03/06 00:19:56;;;;;;;15.73;14.03;;;;;;;;;;5071556;28;20212;-82
2022/03/06 00:22:24;;;;;;;16.57;13.53;;;;;;;;;;5071599;28;20692;-82
2022/03/06 00:24:53;;;;;;;16.17;14.53;;;;;;;;;;5071558;28;20281;-82
2022/03/06 00:27:20;;;;;;;16.97;13.70;;;;;;;;;;5070769;28;20598;-82
2022/03/06 00:29:47;;;;;;;16.90;14.17;;;;;;;;;;5071992;28;20197;-82
2022/03/06 00:32:14;;;;;;;16.03;14.03;;;;;;;;;;5074790;28;20689;-82
2022/03/06 00:34:42;;;;;;;15.67;13.97;;;;;;;;;;5074410;28;20201;-82
2022/03/06 00:37:09;;;;;;;15.90;14.10;;;;;;;;;;5074442;28;20200;-81
2022/03/06 00:39:38;;;;;;;16.73;13.80;;;;;;;;;;5074574;28;20201;-82
2022/03/06 00:42:05;;;;;;;18.50;14.37;;;;;;;;;;5074063;28;20193;-81
2022/03/06 00:44:32;;;;;;;15.73;13.70;;;;;;;;;;5074670;28;20203;-82
2022/03/06 00:47:00;;;;;;;15.37;13.80;;;;;;;;;;5074284;28;20706;-81
2022/03/06 00:49:27;;;;;;;16.00;14.33;;;;;;;;;;5074747;28;20189;-82
2022/03/06 00:51:55;;;;;;;17.10;14.70;;;;;;;;;;5074394;28;20280;-81
2022/03/06 00:54:22;;;;;;;16.43;14.67;;;;;;;;;;5074331;28;20197;-81
2022/03/06 00:56:51;;;;;;;15.00;13.07;;;;;;;;;;5073982;28;20702;-82
2022/03/06 00:59:18;;;;;;;19.77;15.90;;;;;;;;;;5074318;28;20581;-82
2022/03/06 01:01:45;;;;;;;17.77;14.43;;;;;;;;;;5074072;28;20190;-82
2022/03/06 01:04:13;;;;;;;15.67;13.93;;;;;;;;;;5074214;28;20200;-82
2022/03/06 01:06:40;;;;;;;15.17;13.07;;;;;;;;;;5073786;28;20225;-82
2022/03/06 01:09:07;;;;;;;20.70;14.37;;;;;;;;;;5074034;28;20204;-81
2022/03/06 01:11:36;;;;;;;14.37;12.93;;;;;;;;;;5073907;28;20582;-82
2022/03/06 01:14:05;;;;;;;17.40;15.17;;;;;;;;;;5074249;28;20201;-82
2022/03/06 01:16:32;;;;;;;17.57;14.43;;;;;;;;;;5073704;28;20634;-81
2022/03/06 01:18:59;;;;;;;16.40;14.03;;;;;;;;;;5074081;28;20201;-82
2022/03/06 01:21:26;;;;;;;17.57;15.47;;;;;;;;;;5073517;28;20197;-81
2022/03/06 01:23:53;;;;;;;14.83;13.03;;;;;;;;;;5073850;28;20197;-81
2022/03/06 01:26:21;;;;;;;16.43;13.10;;;;;;;;;;5073240;28;20243;-81
2022/03/06 01:28:49;;;;;;;16.93;13.83;;;;;;;;;;5073590;28;20201;-82
2022/03/06 01:31:18;;;;;;;18.30;15.17;;;;;;;;;;5073332;28;20201;-82
2022/03/06 01:33:45;;;;;;;12.50;11.03;;;;;;;;;;5073505;28;20197;-81
2022/03/06 01:36:12;;;;;;;16.57;14.27;;;;;;;;;;5073669;28;20243;-82
2022/03/06 01:38:39;;;;;;;16.13;13.10;;;;;;;;;;5073336;28;20231;-82
2022/03/06 01:41:07;;;;;;;15.67;14.03;;;;;;;;;;5073504;28;20197;-82
2022/03/06 01:43:34;;;;;;;16.70;14.17;;;;;;;;;;5073241;28;20193;-82
2022/03/06 01:46:01;;;;;;;16.70;14.30;;;;;;;;;;5073410;28;20201;-82
2022/03/06 01:48:30;;;;;;;17.93;14.37;;;;;;;;;;5073463;28;20193;-82
2022/03/06 01:50:57;;;;;;;18.70;14.47;;;;;;;;;;5073227;28;20196;-82
2022/03/06 01:53:24;;;;;;;22.20;14.37;;;;;;;;;;5072876;28;20279;-81
2022/03/06 01:55:51;;;;;;;16.53;13.80;;;;;;;;;;5073076;28;20196;-82
2022/03/06 01:58:18;;;;;;;17.67;14.40;;;;;;;;;;5072911;28;20690;-82
2022/03/06 02:00:48;;;;;;;15.43;13.03;;;;;;;;;;5073106;28;20559;-82
2022/03/06 02:03:15;;;;;;;16.87;14.40;;;;;;;;;;5072675;28;20236;-82
2022/03/06 02:05:44;;;;;;;17.47;13.60;;;;;;;;;;5073032;28;20208;-82
2022/03/06 02:08:11;;;;;;;15.57;13.33;;;;;;;;;;5072929;28;20225;-82
2022/03/06 02:10:39;;;;;;;17.37;12.73;;;;;;;;;;5072869;28;20293;-82
2022/03/06 02:13:06;;;;;;;15.20;13.60;;;;;;;;;;5072544;28;20209;-82
2022/03/06 02:15:34;;;;;;;14.70;12.63;;;;;;;;;;5072612;28;20201;-82
2022/03/06 02:18:02;;;;;;;16.70;12.57;;;;;;;;;;5072494;28;20193;-82
2022/03/06 02:20:29;;;;;;;14.03;11.97;;;;;;;;;;5072884;28;20197;-82
2022/03/06 02:22:59;;;;;;;15.93;13.20;;;;;;;;;;5072314;28;20208;-82
2022/03/06 02:25:29;;;;;;;15.13;12.87;;;;;;;;;;5072621;28;20259;-82
2022/03/06 02:27:57;;;;;;;17.40;13.60;;;;;;;;;;5072296;28;20225;-82
2022/03/06 02:30:27;;;;;;;17.27;13.23;;;;;;;;;;5072614;28;20201;-81
2022/03/06 02:32:57;;;;;;;15.33;11.97;;;;;;;;;;5072173;28;20577;-82
2022/03/06 02:35:24;;;;;;;16.57;13.20;;;;;;;;;;5072514;28;20338;-82
2022/03/06 02:37:52;;;;;;;16.10;13.70;;;;;;;;;;5072407;28;20199;-82
2022/03/06 02:40:21;;;;;;;16.57;13.37;;;;;;;;;;5072326;28;20205;-82
2022/03/06 02:42:51;;;;;;;14.00;11.53;;;;;;;;;;5071894;28;20194;-81
2022/03/06 02:45:20;;;;;;;16.23;11.50;;;;;;;;;;5072443;28;20204;-81
2022/03/06 02:47:48;;;;;;;23.40;14.57;;;;;;;;;;5071926;28;20235;-81
2022/03/06 02:50:17;;;;;;;18.70;12.27;;;;;;;;;;5072643;28;20216;-82
2022/03/06 02:52:44;;;;;;;16.93;12.93;;;;;;;;;;5071473;28;20318;-82
2022/03/06 02:55:12;;;;;;;17.47;12.40;;;;;;;;;;5072229;28;20717;-82
2022/03/06 02:57:42;;;;;;;15.73;13.23;;;;;;;;;;5071917;28;20189;-81
2022/03/06 03:00:12;;;;;;;17.00;12.97;;;;;;;;;;5072053;28;20197;-81
2022/03/06 03:02:39;;;;;;;14.40;11.97;;;;;;;;;;5071843;28;20557;-82
2022/03/06 03:05:07;;;;;;;19.63;14.33;;;;;;;;;;5071949;28;20193;-82
2022/03/06 03:07:35;;;;;;;21.20;14.17;;;;;;;;;;5071681;28;20224;-82
2022/03/06 03:10:02;;;;;;;18.50;13.47;;;;;;;;;;5071716;28;20587;-81
2022/03/06 03:12:29;;;;;;;18.53;14.30;;;;;;;;;;5071697;28;20197;-82
2022/03/06 03:14:58;;;;;;;28.97;15.33;;;;;;;;;;5072088;28;20597;-81
2022/03/06 03:17:25;;;;;;;19.03;15.20;;;;;;;;;;5071606;28;20189;-81
2022/03/06 03:19:52;;;;;;;22.03;14.50;;;;;;;;;;5071802;28;20201;-82
2022/03/06 03:22:19;;;;;;;18.57;14.03;;;;;;;;;;5072244;28;20617;-82
2022/03/06 03:24:46;;;;;;;17.00;15.20;;;;;;;;;;5071760;28;20232;-82
2022/03/06 03:27:13;;;;;;;23.13;15.53;;;;;;;;;;5071513;28;20436;-81
2022/03/06 03:29:41;;;;;;;21.97;16.90;;;;;;;;;;5071514;28;20204;-81
2022/03/06 03:32:09;;;;;;;20.10;14.67;;;;;;;;;;5071435;28;20203;-82
2022/03/06 03:34:37;;;;;;;23.03;18.27;;;;;;;;;;5071790;28;20193;-82
2022/03/06 03:37:05;;;;;;;20.50;17.27;;;;;;;;;;5071573;28;20196;-82
2022/03/06 03:39:32;;;;;;;19.07;15.30;;;;;;;;;;5071660;28;20199;-82
2022/03/06 03:41:59;;;;;;;17.13;14.37;;;;;;;;;;5071383;28;20196;-81
2022/03/06 03:44:26;;;;;;;22.33;15.70;;;;;;;;;;5071819;28;20201;-82
2022/03/06 03:46:53;;;;;;;22.97;17.63;;;;;;;;;;5071326;28;20205;-83
2022/03/06 03:49:22;;;;;;;21.33;14.63;;;;;;;;;;5071572;28;20197;-82
2022/03/06 03:51:49;;;;;;;20.67;17.37;;;;;;;;;;5071337;28;20749;-82
2022/03/06 03:54:16;;;;;;;18.40;14.93;;;;;;;;;;5071779;28;20207;-82
2022/03/06 03:56:44;;;;;;;22.70;16.67;;;;;;;;;;5071363;28;20583;-81
2022/03/06 03:59:11;;;;;;;23.43;17.77;;;;;;;;;;5071501;28;20201;-81
2022/03/06 04:01:38;;;;;;;22.07;16.47;;;;;;;;;;5071265;28;20193;-81
2022/03/06 04:04:05;;;;;;;23.23;16.77;;;;;;;;;;5071818;28;20200;-82
2022/03/06 04:06:34;;;;;;;19.57;14.67;;;;;;;;;;5074936;28;20675;-81
2022/03/06 04:09:01;;;;;;;22.67;16.53;;;;;;;;;;5075383;28;20271;-82
2022/03/06 04:11:28;;;;;;;21.60;16.47;;;;;;;;;;5075249;28;20192;-81
2022/03/06 04:13:56;;;;;;;19.30;15.97;;;;;;;;;;5075585;28;20593;-82
2022/03/06 04:16:23;;;;;;;22.90;15.93;;;;;;;;;;5074699;28;20201;-82
2022/03/06 04:18:50;;;;;;;19.47;16.17;;;;;;;;;;5075166;28;20189;-81
2022/03/06 04:21:17;;;;;;;20.97;16.97;;;;;;;;;;5074753;28;20693;-81
2022/03/06 04:23:46;;;;;;;23.50;18.73;;;;;;;;;;5074766;28;20270;-81
2022/03/06 04:26:13;;;;;;;27.37;18.53;;;;;;;;;;5074830;28;20290;-81
2022/03/06 04:28:40;;;;;;;37.67;26.20;;;;;;;;;;5074339;28;20231;-82
2022/03/06 04:31:07;;;;;;;30.27;22.50;;;;;;;;;;5074883;28;20197;-82
2022/03/06 04:33:35;;;;;;;28.23;22.50;;;;;;;;;;5074541;28;20197;-81
2022/03/06 04:36:02;;;;;;;22.50;19.23;;;;;;;;;;5074813;28;20585;-81
2022/03/06 04:38:30;;;;;;;19.63;15.70;;;;;;;;;;5074415;28;20189;-81
2022/03/06 04:40:58;;;;;;;21.30;16.13;;;;;;;;;;5074609;28;20698;-81
2022/03/06 04:43:25;;;;;;;24.80;17.57;;;;;;;;;;5074415;28;20682;-82
2022/03/06 04:45:53;;;;;;;18.07;14.60;;;;;;;;;;5074254;28;20197;-82
2022/03/06 04:48:20;;;;;;;22.60;17.63;;;;;;;;;;5074175;28;20239;-81
2022/03/06 04:50:47;;;;;;;18.83;16.00;;;;;;;;;;5074425;28;20276;-82
2022/03/06 04:53:14;;;;;;;23.67;19.10;;;;;;;;;;5074335;28;20198;-81
2022/03/06 04:55:42;;;;;;;23.87;17.23;;;;;;;;;;5074458;28;20666;-81
2022/03/06 04:58:10;;;;;;;26.20;18.47;;;;;;;;;;5074268;28;20194;-81
2022/03/06 05:00:38;;;;;;;18.13;14.80;;;;;;;;;;5074301;28;20216;-82
2022/03/06 05:03:05;;;;;;;17.67;14.00;;;;;;;;;;5074360;28;20753;-82
2022/03/06 05:05:32;;;;;;;15.27;13.40;;;;;;;;;;5074287;28;20292;-82
2022/03/06 05:07:59;;;;;;;14.27;11.40;;;;;;;;;;5073879;28;20693;-82
2022/03/06 05:10:27;;;;;;;15.63;12.80;;;;;;;;;;5074537;28;20201;-83
2022/03/06 05:12:54;;;;;;;14.63;12.30;;;;;;;;;;5073791;28;20196;-82
2022/03/06 05:15:23;;;;;;;17.33;15.00;;;;;;;;;;5073469;28;20193;-81
2022/03/06 05:17:50;;;;;;;14.37;11.07;;;;;;;;;;5073740;28;20281;-81
2022/03/06 05:20:17;;;;;;;14.60;12.83;;;;;;;;;;5073820;28;20197;-82
2022/03/06 05:22:44;;;;;;;14.97;12.07;;;;;;;;;;5073737;28;20201;-82
2022/03/06 05:25:14;;;;;;;16.43;12.70;;;;;;;;;;5073900;28;20584;-81
2022/03/06 05:27:41;;;;;;;12.80;10.73;;;;;;;;;;5073582;28;20296;-82
2022/03/06 05:30:10;;;;;;;14.80;13.00;;;;;;;;;;5073656;28;20197;-82
2022/03/06 05:32:39;;;;;;;15.50;12.43;;;;;;;;;;5073363;28;20193;-81
2022/03/06 05:35:07;;;;;;;16.90;15.13;;;;;;;;;;5073489;28;20539;-82
2022/03/06 05:37:34;;;;;;;17.27;13.80;;;;;;;;;;5073620;28;20201;-82
2022/03/06 05:40:01;;;;;;;18.63;16.70;;;;;;;;;;5073360;28;20212;-82
2022/03/06 05:42:28;;;;;;;11.03;9.77;;;;;;;;;;5073258;28;20201;-82
2022/03/06 05:44:56;;;;;;;13.80;11.60;;;;;;;;;;5070067;28;20258;-82
2022/03/06 05:47:23;;;;;;;14.10;11.83;;;;;;;;;;5073184;28;20270;-81
2022/03/06 05:49:52;;;;;;;16.03;13.33;;;;;;;;;;5073244;28;20207;-81
2022/03/06 05:52:19;;;;;;;13.13;10.90;;;;;;;;;;5072899;28;20669;-82
2022/03/06 05:54:46;;;;;;;19.50;16.33;;;;;;;;;;5072947;28;20674;-80
2022/03/06 05:57:13;;;;;;;13.93;12.57;;;;;;;;;;5072591;28;20193;-81
2022/03/06 05:59:40;;;;;;;15.10;13.50;;;;;;;;;;5072671;28;20232;-81
2022/03/06 06:02:07;;;;;;;14.97;12.67;;;;;;;;;;5072630;28;20654;-81
2022/03/06 06:04:35;;;;;;;15.17;10.10;;;;;;;;;;5072932;28;20197;-81
2022/03/06 06:07:04;;;;;;;15.83;13.87;;;;;;;;;;5072605;28;20196;-81
2022/03/06 06:09:31;;;;;;;15.67;14.00;;;;;;;;;;5073016;28;20220;-81
2022/03/06 06:11:58;;;;;;;24.47;17.93;;;;;;;;;;5072506;28;20204;-81
2022/03/06 06:14:25;;;;;;;13.27;11.73;;;;;;;;;;5072656;28;20204;-81
2022/03/06 06:16:52;;;;;;;21.17;16.20;;;;;;;;;;5072384;28;20666;-81
2022/03/06 06:19:20;;;;;;;19.07;15.40;;;;;;;;;;5071326;28;20658;-80
2022/03/06 06:21:47;;;;;;;19.03;15.23;;;;;;;;;;5072345;28;20232;-81
2022/03/06 06:24:16;;;;;;;16.90;14.07;;;;;;;;;;5072831;28;20204;-80
2022/03/06 06:26:45;;;;;;;17.17;14.40;;;;;;;;;;5071521;28;20232;-80
2022/03/06 06:29:13;;;;;;;13.67;12.23;;;;;;;;;;5072110;28;20706;-81
2022/03/06 06:31:40;;;;;;;16.07;12.20;;;;;;;;;;5072193;28;20199;-81
2022/03/06 06:34:07;;;;;;;14.47;12.93;;;;;;;;;;5072407;28;20193;-81
2022/03/06 06:36:34;;;;;;;16.70;12.83;;;;;;;;;;5071910;28;20563;-81
2022/03/06 06:39:02;;;;;;;14.67;12.93;;;;;;;;;;5072310;28;20189;-81
2022/03/06 06:41:30;;;;;;;15.57;13.77;;;;;;;;;;5072057;28;20239;-81
2022/03/06 06:43:57;;;;;;;17.27;12.50;;;;;;;;;;5072390;28;20200;-81
2022/03/06 06:46:24;;;;;;;14.97;12.63;;;;;;;;;;5071745;28;20197;-82
2022/03/06 06:48:52;;;;;;;18.83;14.23;;;;;;;;;;5072044;28;20225;-83
2022/03/06 06:51:19;;;;;;;14.03;12.57;;;;;;;;;;5072271;28;20197;-82
2022/03/06 06:53:46;;;;;;;16.13;13.57;;;;;;;;;;5072055;28;20689;-82
2022/03/06 06:56:13;;;;;;;15.97;13.27;;;;;;;;;;5071820;28;20745;-82
2022/03/06 06:58:42;;;;;;;17.53;13.40;;;;;;;;;;5072224;28;20197;-82
2022/03/06 07:01:09;;;;;;;12.27;9.43;;;;;;;;;;5072237;28;20193;-82
2022/03/06 07:03:36;;;;;;;14.20;12.33;;;;;;;;;;5072052;28;20697;-82
2022/03/06 07:06:03;;;;;;;17.13;14.00;;;;;;;;;;5071754;28;20677;-83
2022/03/06 07:08:31;;;;;;;16.50;13.50;;;;;;;;;;5071667;28;20228;-82
2022/03/06 07:10:58;;;;;;;17.77;13.00;;;;;;;;;;5071862;28;20204;-82
2022/03/06 07:13:25;;;;;;;17.67;15.27;;;;;;;;;;5071678;28;20193;-82
2022/03/06 07:15:54;;;;;;;21.00;16.63;;;;;;;;;;5071641;28;20207;-82
2022/03/06 07:18:21;;;;;;;19.60;15.47;;;;;;;;;;5071630;28;20200;-82
2022/03/06 07:20:48;;;;;;;15.80;12.10;;;;;;;;;;5071814;28;20197;-82
2022/03/06 07:23:16;;;;;;;17.83;13.57;;;;;;;;;;5071490;28;20204;-82
2022/03/06 07:25:43;;;;;;;14.93;13.33;;;;;;;;;;5071255;28;20295;-82
2022/03/06 07:28:10;;;;;;;15.17;12.67;;;;;;;;;;5071379;28;20221;-83
2022/03/06 07:30:37;;;;;;;18.23;14.40;;;;;;;;;;5071570;28;20207;-83
2022/03/06 07:33:06;;;;;;;16.87;14.60;;;;;;;;;;5071242;28;20196;-81
2022/03/06 07:35:33;;;;;;;16.00;13.87;;;;;;;;;;5071800;28;20573;-82
2022/03/06 07:38:00;;;;;;;14.80;12.97;;;;;;;;;;5071919;28;20197;-83
2022/03/06 07:40:28;;;;;;;14.37;12.37;;;;;;;;;;5076018;28;20200;-82
2022/03/06 07:42:55;;;;;;;18.63;15.43;;;;;;;;;;5075571;28;20201;-82
2022/03/06 07:45:22;;;;;;;17.53;15.00;;;;;;;;;;5075366;28;20203;-82
2022/03/06 07:47:49;;;;;;;18.70;14.90;;;;;;;;;;5075465;28;20193;-83
2022/03/06 07:50:18;;;;;;;16.00;13.77;;;;;;;;;;5075393;28;20225;-83
2022/03/06 07:52:45;;;;;;;18.20;15.67;;;;;;;;;;5075114;28;20196;-82
2022/03/06 07:55:13;;;;;;;15.13;13.53;;;;;;;;;;5075316;28;20201;-82
2022/03/06 07:57:40;;;;;;;17.17;14.40;;;;;;;;;;5075261;28;20677;-82
2022/03/06 08:00:10;;;;;;;16.70;14.27;;;;;;;;;;5075105;28;20197;-82
2022/03/06 08:02:37;;;;;;;17.00;13.33;;;;;;;;;;5075223;28;20204;-85
2022/03/06 08:05:05;;;;;;;15.53;12.47;;;;;;;;;;5075243;28;20283;-83
2022/03/06 08:07:34;;;;;;;15.33;13.43;;;;;;;;;;5075517;28;20201;-83
2022/03/06 08:10:04;;;;;;;17.80;13.57;;;;;;;;;;5075153;28;20591;-83
2022/03/06 08:12:31;;;;;;;17.70;13.87;;;;;;;;;;5074960;28;20284;-83
2022/03/06 08:14:58;;;;;;;15.00;12.27;;;;;;;;;;5075061;28;20224;-83
2022/03/06 08:17:25;;;;;;;16.63;12.87;;;;;;;;;;5075162;28;20197;-83
2022/03/06 08:19:53;;;;;;;16.47;14.00;;;;;;;;;;5075082;28;20197;-84
2022/03/06 08:22:22;;;;;;;21.77;15.07;;;;;;;;;;5074742;28;20193;-83
2022/03/06 08:24:51;;;;;;;15.67;12.27;;;;;;;;;;5075165;28;20207;-83
2022/03/06 08:27:18;;;;;;;15.00;13.00;;;;;;;;;;5074532;28;20233;-84
2022/03/06 08:29:46;;;;;;;14.73;12.57;;;;;;;;;;5074779;28;20312;-83
2022/03/06 08:32:13;;;;;;;13.03;11.63;;;;;;;;;;5074334;28;20235;-83
2022/03/06 08:34:40;;;;;;;13.47;12.00;;;;;;;;;;5074743;28;20201;-84
2022/03/06 08:37:07;;;;;;;15.37;12.73;;;;;;;;;;5074987;28;20797;-84
2022/03/06 08:39:35;;;;;;;14.33;12.83;;;;;;;;;;5074984;28;20196;-84
2022/03/06 08:42:04;;;;;;;15.00;11.60;;;;;;;;;;5074722;28;20197;-84
2022/03/06 08:44:31;;;;;;;15.27;12.83;;;;;;;;;;5074400;28;20206;-84
2022/03/06 08:46:59;;;;;;;21.00;15.87;;;;;;;;;;5074678;28;20193;-84
2022/03/06 08:49:26;;;;;;;19.37;15.30;;;;;;;;;;5074752;28;20217;-84
2022/03/06 08:51:53;;;;;;;20.60;16.50;;;;;;;;;;5073251;28;20197;-84
2022/03/06 08:54:21;;;;;;;20.03;14.60;;;;;;;;;;5074679;28;20219;-84
2022/03/06 08:56:48;;;;;;;19.20;15.23;;;;;;;;;;5074481;28;20205;-83
2022/03/06 08:59:19;;;;;;;20.73;16.30;;;;;;;;;;5074203;28;20283;-84
2022/03/06 09:01:46;;;;;;;18.43;14.33;;;;;;;;;;5074145;28;20662;-83
2022/03/06 09:04:14;;;;;;;15.30;12.83;;;;;;;;;;5074545;28;20582;-84
2022/03/06 09:06:42;;;;;;;16.83;12.93;;;;;;;;;;5074051;28;20255;-84
2022/03/06 09:09:09;;;;;;;15.73;11.37;;;;;;;;;;5074306;28;20220;-84
2022/03/06 09:11:37;;;;;;;17.77;14.47;;;;;;;;;;5073983;28;20291;-84
2022/03/06 09:14:04;;;;;;;13.73;12.07;;;;;;;;;;5073855;28;20204;-84
2022/03/06 09:16:33;;;;;;;18.80;14.67;;;;;;;;;;5074083;28;20203;-83
2022/03/06 09:19:01;;;;;;;13.33;11.90;;;;;;;;;;5074017;28;20391;-85
2022/03/06 09:21:28;;;;;;;16.53;13.13;;;;;;;;;;5073696;28;20208;-84
2022/03/06 09:23:55;;;;;;;16.40;13.90;;;;;;;;;;5074222;28;20283;-85
2022/03/06 09:26:23;;;;;;;12.67;10.80;;;;;;;;;;5073693;28;20228;-85
2022/03/06 09:28:50;;;;;;;14.57;12.30;;;;;;;;;;5073809;28;20221;-85
2022/03/06 09:31:17;;;;;;;18.87;14.67;;;;;;;;;;5073897;28;20196;-85
2022/03/06 09:33:46;;;;;;;24.20;18.37;;;;;;;;;;5074134;28;20634;-86
2022/03/06 09:36:13;;;;;;;24.33;18.70;;;;;;;;;;5073703;28;20197;-86
2022/03/06 09:38:40;;;;;;;19.07;15.50;;;;;;;;;;5073702;28;20193;-86
2022/03/06 09:41:07;;;;;;;16.03;13.77;;;;;;;;;;5073833;28;20193;-86
2022/03/06 09:43:35;;;;;;;17.73;14.00;;;;;;;;;;5074099;28;20203;-86
2022/03/06 09:46:05;;;;;;;20.10;15.47;;;;;;;;;;5073473;28;20236;-84
2022/03/06 09:48:32;;;;;;;22.73;17.17;;;;;;;;;;5073576;28;20661;-85
2022/03/06 09:51:01;;;;;;;16.17;12.60;;;;;;;;;;5073497;28;20289;-84
2022/03/06 09:53:29;;;;;;;17.13;13.60;;;;;;;;;;5073223;28;20247;-83
2022/03/06 09:55:57;;;;;;;12.30;10.90;;;;;;;;;;5073222;28;20197;-83
2022/03/06 09:58:24;;;;;;;15.03;12.43;;;;;;;;;;5073006;28;20193;-83
2022/03/06 10:00:51;;;;;;;10.60;9.27;;;;;;;;;;5073536;28;20285;-83
2022/03/06 10:03:20;;;;;;;13.43;12.03;;;;;;;;;;5071815;28;20713;-83
2022/03/06 10:05:48;;;;;;;12.60;10.50;;;;;;;;;;5072772;28;20235;-82
2022/03/06 10:08:19;;;;;;;12.20;10.83;;;;;;;;;;5073018;28;20211;-87
2022/03/06 10:10:47;;;;;;;10.37;9.27;;;;;;;;;;5072960;28;20301;-82
2022/03/06 10:13:26;;;;;;;11.30;10.00;;;;;;;;;;5072763;28;20200;-81
2022/03/06 10:16:11;;;;;;;12.00;9.93;;;;;;;;;;5073158;28;20272;-82
2022/03/06 10:18:41;;;;;;;14.03;11.13;;;;;;;;;;5072735;28;20185;-82
2022/03/06 10:21:17;;;;;;;11.03;9.23;;;;;;;;;;5072657;28;20757;-81
2022/03/06 10:23:46;;;;;;;8.60;7.70;;;;;;;;;;5072526;28;20191;-81
2022/03/06 10:26:14;;;;;;;8.63;7.73;;;;;;;;;;5072243;28;20688;-81
2022/03/06 10:28:53;;;;;;;7.57;6.43;;;;;;;;;;5072403;28;20760;-81
2022/03/06 10:31:22;;;;;;;9.07;8.13;;;;;;;;;;5072338;28;20539;-80
2022/03/06 10:34:01;;;;;;;12.80;10.77;;;;;;;;;;5072258;28;20205;-81
2022/03/06 10:36:33;;;;;;;11.60;10.37;;;;;;;;;;5072462;28;20197;-81
2022/03/06 10:39:02;;;;;;;14.73;11.47;;;;;;;;;;5072585;28;20223;-81
2022/03/06 10:41:38;;;;;;;13.37;11.70;;;;;;;;;;5072297;28;20644;-81
2022/03/06 10:44:06;;;;;;;15.97;13.13;;;;;;;;;;5072473;28;20588;-81
2022/03/06 10:46:35;;;;;;;16.40;11.50;;;;;;;;;;5072147;28;20203;-81
2022/03/06 10:49:08;;;;;;;20.07;16.00;;;;;;;;;;5072117;28;20662;-81
2022/03/06 10:51:43;;;;;;;26.50;19.90;;;;;;;;;;5072533;28;20258;-81
2022/03/06 10:54:13;;;;;;;24.97;18.40;;;;;;;;;;5071956;28;20195;-81
2022/03/06 10:56:40;;;;;;;17.77;14.00;;;;;;;;;;5072349;28;20192;-82
2022/03/06 10:59:08;;;;;;;12.30;11.00;;;;;;;;;;5072112;28;20193;-81
2022/03/06 11:01:37;;;;;;;13.03;10.00;;;;;;;;;;5071840;28;20196;-81
2022/03/06 11:04:06;;;;;;;9.50;8.50;;;;;;;;;;5071758;28;20204;-82
2022/03/06 11:06:39;;;;;;;11.67;10.47;;;;;;;;;;5071737;28;20197;-82
2022/03/06 11:09:12;;;;;;;10.13;9.13;;;;;;;;;;5072303;28;20181;-81
2022/03/06 11:11:41;;;;;;;9.30;8.40;;;;;;;;;;5072097;28;20189;-81
2022/03/06 11:14:09;;;;;;;9.73;8.47;;;;;;;;;;5070924;28;20200;-81
2022/03/06 11:16:36;;;;;;;11.27;10.17;;;;;;;;;;5070014;28;20227;-83
2022/03/06 11:19:04;;;;;;;10.70;9.70;;;;;;;;;;5071791;28;20196;-83
2022/03/06 11:21:34;;;;;;;8.73;7.83;;;;;;;;;;5071276;28;20580;-83
2022/03/06 11:24:06;;;;;;;12.57;10.07;;;;;;;;;;5071566;28;20577;-83
2022/03/06 11:27:08;;;;;;;13.00;8.67;;;;;;;;;;5071317;28;20245;-83
2022/03/06 11:29:52;;;;;;;11.57;10.13;;;;;;;;;;5068715;28;20256;-83
2022/03/06 11:32:28;;;;;;;11.43;9.57;;;;;;;;;;5071386;28;20564;-82
2022/03/06 11:35:03;;;;;;;9.30;8.07;;;;;;;;;;5071581;28;20231;-83
2022/03/06 11:37:30;;;;;;;13.93;11.33;;;;;;;;;;5071457;28;20242;-83
2022/03/06 11:39:57;;;;;;;8.07;7.27;;;;;;;;;;5071112;28;20580;-80
2022/03/06 11:42:55;;;;;;;10.70;8.63;;;;;;;;;;5070718;28;20200;-81
2022/03/06 11:45:49;;;;;;;28.33;19.27;;;;;;;;;;5070804;28;20196;-81
2022/03/06 11:48:28;;;;;;;20.07;15.67;;;;;;;;;;5070511;28;20201;-81
2022/03/06 11:51:17;;;;;;;11.50;10.00;;;;;;;;;;5070349;28;20319;-82
2022/03/06 11:53:49;;;;;;;6.97;6.30;;;;;;;;;;5071507;28;20204;-82
2022/03/06 11:56:55;;;;;;;8.10;7.27;;;;;;;;;;5071456;28;20273;-82
2022/03/06 11:59:28;;;;;;;8.50;7.20;;;;;;;;;;5065046;28;20283;-82
2022/03/06 12:01:58;;;;;;;8.37;7.57;;;;;;;;;;5071268;28;20216;-82
2022/03/06 12:04:28;;;;;;;7.43;6.73;;;;;;;;;;5071493;28;20213;-81
2022/03/06 12:06:56;;;;;;;6.97;6.27;;;;;;;;;;5071074;28;20193;-82
2022/03/06 12:09:24;;;;;;;8.30;6.93;;;;;;;;;;5071469;28;20577;-82
2022/03/06 12:11:53;;;;;;;17.37;12.27;;;;;;;;;;5070841;28;20212;-82
2022/03/06 12:14:22;;;;;;;6.67;5.97;;;;;;;;;;5071084;28;20197;-82
2022/03/06 12:17:26;;;;;;;7.63;6.93;;;;;;;;;;5071003;28;20197;-82
2022/03/06 12:20:33;;;;;;;19.73;13.37;;;;;;;;;;5070086;28;20196;-81
2022/03/06 12:23:04;;;;;;;15.57;9.87;;;;;;;;;;5070150;28;20753;-81
2022/03/06 12:25:33;;;;;;;11.03;9.47;;;;;;;;;;5070589;28;20232;-82
2022/03/06 12:28:34;;;;;;;9.27;7.57;;;;;;;;;;5073622;28;20189;-82
2022/03/06 12:31:30;;;;;;;14.67;13.07;;;;;;;;;;5073665;28;20209;-82
2022/03/06 12:33:57;;;;;;;13.00;10.60;;;;;;;;;;5073414;28;20196;-82
2022/03/06 12:36:26;;;;;;;17.87;13.27;;;;;;;;;;5073210;28;20193;-82
2022/03/06 12:39:06;;;;;;;20.37;13.93;;;;;;;;;;5073470;28;20197;-82
2022/03/06 12:41:34;;;;;;;19.73;12.50;;;;;;;;;;5073740;28;20239;-82
2022/03/06 12:44:05;;;;;;;20.23;14.07;;;;;;;;;;5073070;28;20204;-82
2022/03/06 12:46:32;;;;;;;11.30;9.43;;;;;;;;;;5073172;28;20284;-82
2022/03/06 12:49:00;;;;;;;13.87;9.37;;;;;;;;;;5073579;28;20236;-82
2022/03/06 12:51:39;;;;;;;11.27;9.07;;;;;;;;;;5073502;28;20217;-81
2022/03/06 12:54:18;;;;;;;10.97;9.50;;;;;;;;;;5073395;28;20195;-82
2022/03/06 12:56:45;;;;;;;9.73;8.40;;;;;;;;;;5073183;28;20191;-82
2022/03/06 12:59:18;;;;;;;11.13;8.50;;;;;;;;;;5073012;28;20208;-81
2022/03/06 13:01:46;;;;;;;8.53;7.57;;;;;;;;;;5073029;28;20192;-82
2022/03/06 13:04:15;;;;;;;9.40;8.43;;;;;;;;;;5073103;28;20193;-81
2022/03/06 13:06:42;;;;;;;17.10;14.67;;;;;;;;;;5072970;28;20201;-81
2022/03/06 13:09:21;;;;;;;11.23;9.33;;;;;;;;;;5072778;28;20684;-81
2022/03/06 13:11:50;;;;;;;7.00;6.30;;;;;;;;;;5072945;28;20216;-81
2022/03/06 13:14:17;;;;;;;13.20;10.30;;;;;;;;;;5073018;28;20240;-82
2022/03/06 13:16:44;;;;;;;9.37;8.20;;;;;;;;;;5072690;28;20291;-82
2022/03/06 13:19:11;;;;;;;10.50;8.23;;;;;;;;;;5072651;28;20197;-82
2022/03/06 13:21:39;;;;;;;9.07;7.30;;;;;;;;;;5072897;28;20207;-82
2022/03/06 13:24:11;;;;;;;8.20;7.40;;;;;;;;;;5072500;28;20189;-82
2022/03/06 13:26:40;;;;;;;7.63;6.83;;;;;;;;;;5072564;28;20673;-83
2022/03/06 13:29:08;;;;;;;8.60;7.63;;;;;;;;;;5072805;28;20199;-83
2022/03/06 13:31:42;;;;;;;12.53;9.67;;;;;;;;;;5072423;28;20278;-83
2022/03/06 13:34:12;;;;;;;12.37;9.27;;;;;;;;;;5072832;28;20193;-83
2022/03/06 13:36:39;;;;;;;8.97;7.57;;;;;;;;;;5073138;28;20197;-82
2022/03/06 13:39:09;;;;;;;6.10;5.50;;;;;;;;;;5073658;28;20201;-82
2022/03/06 13:41:36;;;;;;;15.83;12.27;;;;;;;;;;5073324;28;20201;-82
2022/03/06 13:44:08;;;;;;;17.73;13.20;;;;;;;;;;5064618;28;20638;-84
2022/03/06 13:46:40;;;;;;;24.23;16.23;;;;;;;;;;5053574;28;20228;-82
2022/03/06 13:49:14;;;;;;;24.40;16.27;;;;;;;;;;5053649;28;20694;-83
2022/03/06 13:51:42;;;;;;;15.40;11.60;;;;;;;;;;5053564;28;20205;-83
2022/03/06 13:54:10;;;;;;;20.03;15.10;;;;;;;;;;5053537;28;20706;-83
2022/03/06 13:56:39;;;;;;;13.97;10.60;;;;;;;;;;5053211;28;20198;-83
2022/03/06 13:59:10;;;;;;;13.63;11.63;;;;;;;;;;5052771;28;20289;-84
2022/03/06 14:01:37;;;;;;;10.57;9.37;;;;;;;;;;5053071;28;20182;-84
2022/03/06 14:04:07;;;;;;;7.20;6.50;;;;;;;;;;5052253;28;20198;-85
2022/03/06 14:06:38;;;;;;;7.20;6.30;;;;;;;;;;5052901;28;20202;-83
2022/03/06 14:09:25;;;;;;;8.37;7.40;;;;;;;;;;5053247;28;20186;-83
2022/03/06 14:11:53;;;;;;;8.37;7.30;;;;;;;;;;5052833;28;20205;-83
2022/03/06 14:14:22;;;;;;;9.50;8.27;;;;;;;;;;5051308;28;20201;-84
2022/03/06 14:17:03;;;;;;;9.33;7.33;;;;;;;;;;5053022;28;20578;-84
2022/03/06 14:19:30;;;;;;;7.93;7.13;;;;;;;;;;5052779;28;20186;-80
2022/03/06 14:21:58;;;;;;;6.17;5.57;;;;;;;;;;5052974;28;20194;-80
2022/03/06 14:24:25;;;;;;;5.77;5.27;;;;;;;;;;5052667;28;20202;-80
2022/03/06 14:26:52;;;;;;;7.63;6.93;;;;;;;;;;5052509;28;20280;-80
2022/03/06 14:29:23;;;;;;;5.70;5.13;;;;;;;;;;5052511;28;20235;-80
2022/03/06 14:31:52;;;;;;;8.43;7.63;;;;;;;;;;5052968;28;20268;-81